Time;durP1;ratioP1;P1;durP2;ratioP2;P2;SDS_P1;SDS_P2;PMS_P1;PMS_P2;Temp;Humidity;BMP_temperature;BMP_pressure;BME280_temperature;BME280_humidity;BME280_pressure;Samples;Min_cycle;Max_cycle;Signal;HPM_P1;HPM_P2
2024/04/22 00:00:31;;;;;;;3.47;3.03;;;14.80;45.30;;;;;;5403869;26;20707;-57
2024/04/22 00:02:57;;;;;;;3.40;3.10;;;14.80;45.30;;;;;;5397262;26;20475;-57
2024/04/22 00:05:23;;;;;;;9.37;3.97;;;14.90;45.50;;;;;;5396441;26;20673;-57
2024/04/22 00:07:48;;;;;;;3.70;3.40;;;15.00;45.60;;;;;;5401064;26;20336;-58
2024/04/22 00:10:14;;;;;;;3.83;3.50;;;15.10;45.60;;;;;;5396961;26;20233;-57
2024/04/22 00:12:40;;;;;;;3.37;3.07;;;15.10;45.50;;;;;;5400161;26;20734;-59
2024/04/22 00:15:06;;;;;;;3.30;3.00;;;15.30;45.50;;;;;;5396366;26;20522;-57
2024/04/22 00:17:31;;;;;;;4.33;3.37;;;15.30;45.80;;;;;;5396308;26;21742;-57
2024/04/22 00:20:00;;;;;;;4.10;3.77;;;15.40;45.50;;;;;;5400526;26;20482;-57
2024/04/22 00:22:25;;;;;;;3.67;3.33;;;15.40;46.10;;;;;;5398292;26;20242;-58
2024/04/22 00:24:51;;;;;;;4.10;3.80;;;15.40;45.30;;;;;;5396108;26;20527;-57
2024/04/22 00:27:16;;;;;;;3.70;3.27;;;15.50;44.90;;;;;;5396438;26;20362;-58
2024/04/22 00:29:42;;;;;;;3.37;3.00;;;15.50;44.90;;;;;;5398672;26;20272;-57
2024/04/22 00:32:07;;;;;;;5.20;3.67;;;15.60;45.40;;;;;;5399702;26;20245;-58
2024/04/22 00:34:33;;;;;;;3.90;3.43;;;15.60;45.30;;;;;;5404129;26;20284;-53
2024/04/22 00:36:58;;;;;;;4.10;3.70;;;15.60;44.00;;;;;;5406790;26;20285;-57
2024/04/22 00:39:24;;;;;;;5.40;4.43;;;15.30;43.50;;;;;;5406177;26;20403;-57
2024/04/22 00:41:50;;;;;;;4.13;3.47;;;15.30;44.20;;;;;;5406964;26;20721;-58
2024/04/22 00:44:15;;;;;;;4.00;3.70;;;15.30;44.40;;;;;;5411840;26;20631;-59
2024/04/22 00:46:41;;;;;;;3.77;2.90;;;15.30;45.00;;;;;;5408231;26;20342;-57
2024/04/22 00:49:07;;;;;;;3.40;3.10;;;15.20;44.80;;;;;;5411657;26;20229;-57
2024/04/22 00:51:33;;;;;;;4.90;3.50;;;15.20;45.10;;;;;;5401055;26;20235;-57
2024/04/22 00:54:00;;;;;;;3.23;2.93;;;15.20;45.00;;;;;;5406061;26;20471;-57
2024/04/22 00:56:28;;;;;;;3.67;3.37;;;15.20;45.00;;;;;;5397896;26;20517;-58
2024/04/22 00:58:57;;;;;;;4.40;3.70;;;15.20;46.10;;;;;;5406363;26;21124;-59
2024/04/22 01:01:24;;;;;;;3.13;2.93;;;15.30;45.60;;;;;;5410079;26;20854;-59
2024/04/22 01:03:50;;;;;;;4.27;3.40;;;15.30;45.00;;;;;;5412531;26;20577;-54
2024/04/22 01:06:17;;;;;;;4.10;3.70;;;15.40;44.90;;;;;;5411305;26;20528;-59
2024/04/22 01:08:42;;;;;;;3.90;3.60;;;15.40;44.30;;;;;;5413178;26;20475;-58
2024/04/22 01:11:08;;;;;;;3.50;3.20;;;15.40;44.00;;;;;;5411320;26;20556;-58
2024/04/22 01:13:33;;;;;;;4.20;3.43;;;15.30;43.70;;;;;;5404244;26;20226;-58
2024/04/22 01:15:59;;;;;;;2.90;2.70;;;15.20;42.90;;;;;;5406161;26;20231;-57
2024/04/22 01:18:24;;;;;;;4.40;4.00;;;15.20;43.40;;;;;;5401706;26;20230;-56
2024/04/22 01:20:50;;;;;;;3.60;3.30;;;15.20;43.90;;;;;;5404672;26;20659;-59
2024/04/22 01:23:17;;;;;;;4.27;3.87;;;15.30;44.20;;;;;;5398097;26;20227;-57
2024/04/22 01:25:52;;;;;;;3.80;3.50;;;15.30;43.60;;;;;;5403159;26;20748;-59
2024/04/22 01:28:17;;;;;;;3.10;2.50;;;15.40;43.90;;;;;;5411020;26;21116;-57
2024/04/22 01:30:43;;;;;;;3.60;3.30;;;15.40;43.90;;;;;;5406755;26;20463;-58
2024/04/22 01:33:08;;;;;;;5.57;3.20;;;15.50;43.90;;;;;;5400919;26;20237;-58
2024/04/22 01:35:34;;;;;;;3.80;3.17;;;15.50;43.30;;;;;;5400163;26;20342;-57
2024/04/22 01:37:59;;;;;;;3.70;3.40;;;15.50;42.80;;;;;;5401316;26;20290;-59
2024/04/22 01:40:25;;;;;;;4.00;3.60;;;15.40;43.20;;;;;;5397551;26;20238;-59
2024/04/22 01:42:51;;;;;;;3.73;3.43;;;15.40;43.00;;;;;;5401708;26;20311;-58
2024/04/22 01:45:17;;;;;;;6.27;3.27;;;15.30;43.10;;;;;;5399097;26;20605;-56
2024/04/22 01:47:43;;;;;;;3.90;3.60;;;15.30;43.30;;;;;;5400522;26;20525;-55
2024/04/22 01:50:09;;;;;;;5.00;3.70;;;15.20;42.60;;;;;;5397783;26;20238;-57
2024/04/22 01:52:34;;;;;;;4.30;3.33;;;15.10;42.70;;;;;;5394806;26;20288;-57
2024/04/22 01:55:00;;;;;;;3.97;3.50;;;15.10;43.00;;;;;;5402539;26;20544;-60
2024/04/22 01:57:25;;;;;;;3.93;3.63;;;15.10;43.00;;;;;;5403407;26;20287;-56
2024/04/22 01:59:51;;;;;;;4.97;4.47;;;15.10;42.70;;;;;;5399917;26;20382;-56
2024/04/22 02:02:17;;;;;;;4.20;3.80;;;15.20;42.60;;;;;;5400670;26;20272;-59
2024/04/22 02:04:42;;;;;;;4.57;4.10;;;15.10;42.70;;;;;;5399114;26;20243;-57
2024/04/22 02:07:08;;;;;;;4.70;3.83;;;15.00;42.90;;;;;;5402065;26;20241;-56
2024/04/22 02:09:33;;;;;;;4.30;4.00;;;14.90;43.20;;;;;;5402188;26;20241;-55
2024/04/22 02:11:59;;;;;;;4.07;3.77;;;14.80;43.70;;;;;;5402551;26;20296;-57
2024/04/22 02:14:24;;;;;;;4.00;3.57;;;14.60;43.70;;;;;;5398981;26;21155;-56
2024/04/22 02:16:50;;;;;;;4.87;4.47;;;14.50;43.80;;;;;;5398386;26;20263;-58
2024/04/22 02:19:15;;;;;;;3.70;3.40;;;14.50;44.20;;;;;;5396792;26;20371;-56
2024/04/22 02:21:41;;;;;;;5.43;3.83;;;14.50;44.30;;;;;;5400539;26;20246;-55
2024/04/22 02:24:07;;;;;;;3.57;3.23;;;14.60;44.60;;;;;;5399812;26;20292;-59
2024/04/22 02:26:32;;;;;;;3.43;3.10;;;14.70;45.20;;;;;;5398145;26;20295;-56
2024/04/22 02:28:58;;;;;;;3.40;3.07;;;14.80;44.80;;;;;;5397923;26;20341;-57
2024/04/22 02:31:23;;;;;;;3.83;3.53;;;14.80;44.20;;;;;;5398849;26;20237;-58
2024/04/22 02:33:49;;;;;;;3.47;2.70;;;14.70;44.90;;;;;;5402734;26;20229;-57
2024/04/22 02:36:14;;;;;;;3.13;2.83;;;14.70;44.60;;;;;;5409637;26;20273;-59
2024/04/22 02:38:40;;;;;;;3.50;3.20;;;14.80;44.20;;;;;;5404648;26;20361;-58
2024/04/22 02:41:06;;;;;;;3.23;3.00;;;14.80;43.50;;;;;;5410724;26;20238;-53
2024/04/22 02:43:31;;;;;;;3.30;3.00;;;14.80;43.20;;;;;;5411768;26;20245;-58
2024/04/22 02:45:57;;;;;;;3.03;2.83;;;14.70;42.70;;;;;;5411311;26;20269;-59
2024/04/22 02:48:22;;;;;;;3.27;2.97;;;14.70;43.10;;;;;;5410858;26;20261;-59
2024/04/22 02:50:48;;;;;;;3.90;3.20;;;14.70;43.30;;;;;;5410439;26;20326;-58
2024/04/22 02:53:14;;;;;;;3.30;2.93;;;14.70;43.00;;;;;;5399492;26;20778;-58
2024/04/22 02:55:40;;;;;;;3.63;3.07;;;14.80;43.20;;;;;;5410876;26;20289;-55
2024/04/22 02:58:06;;;;;;;3.90;3.10;;;14.80;43.50;;;;;;5408232;26;21051;-57
2024/04/22 03:00:31;;;;;;;3.17;2.90;;;14.90;43.50;;;;;;5411156;26;20241;-56
2024/04/22 03:02:58;;;;;;;2.90;2.67;;;15.00;43.30;;;;;;5416594;26;20341;-58
2024/04/22 03:05:23;;;;;;;3.57;2.73;;;15.00;42.90;;;;;;5409430;26;20254;-58
2024/04/22 03:07:50;;;;;;;3.37;3.10;;;15.10;42.40;;;;;;5410815;26;20893;-59
2024/04/22 03:10:16;;;;;;;3.43;2.93;;;15.10;42.50;;;;;;5410445;26;20238;-58
2024/04/22 03:12:41;;;;;;;4.40;3.63;;;15.10;42.20;;;;;;5402281;26;20978;-58
2024/04/22 03:15:07;;;;;;;2.90;2.70;;;15.10;42.40;;;;;;5416803;26;20242;-57
2024/04/22 03:17:33;;;;;;;4.33;3.40;;;15.20;43.00;;;;;;5397696;26;20322;-59
2024/04/22 03:19:59;;;;;;;3.27;2.93;;;15.10;41.60;;;;;;5399580;26;20638;-54
2024/04/22 03:22:24;;;;;;;3.33;3.03;;;15.10;42.40;;;;;;5402146;26;20524;-59
2024/04/22 03:24:50;;;;;;;3.87;3.20;;;15.10;42.40;;;;;;5402888;26;20289;-57
2024/04/22 03:27:15;;;;;;;3.20;2.93;;;15.10;42.30;;;;;;5405135;26;20261;-58
2024/04/22 03:29:41;;;;;;;3.60;3.30;;;15.20;42.40;;;;;;5400207;26;20759;-58
2024/04/22 03:32:07;;;;;;;3.20;2.90;;;15.20;42.20;;;;;;5406050;26;20238;-58
2024/04/22 03:34:32;;;;;;;2.90;2.70;;;15.30;42.70;;;;;;5398385;26;20345;-54
2024/04/22 03:36:58;;;;;;;3.83;3.00;;;15.30;43.20;;;;;;5404150;26;20650;-57
2024/04/22 03:39:23;;;;;;;4.20;3.00;;;15.20;42.80;;;;;;5402507;26;20327;-57
2024/04/22 03:41:49;;;;;;;3.37;3.07;;;15.20;42.80;;;;;;5391484;26;20241;-56
2024/04/22 03:44:14;;;;;;;3.30;2.77;;;15.10;42.30;;;;;;5403098;26;20273;-57
2024/04/22 03:52:30;;;;;;;3.00;2.70;;;15.10;43.30;;;;;;5336217;26;20483;-58
2024/04/22 03:54:55;;;;;;;6.70;3.10;;;15.20;42.50;;;;;;5323582;26;20474;-56
2024/04/22 03:57:21;;;;;;;3.50;3.20;;;15.20;42.00;;;;;;5367860;26;20536;-56
2024/04/22 03:59:46;;;;;;;2.83;2.63;;;15.20;41.50;;;;;;5401071;26;20243;-56
2024/04/22 04:02:12;;;;;;;3.13;2.83;;;15.20;41.20;;;;;;5394987;26;20275;-56
2024/04/22 04:04:38;;;;;;;4.37;3.60;;;15.30;41.00;;;;;;5399795;26;20354;-57
2024/04/22 04:07:03;;;;;;;3.97;3.60;;;15.30;41.10;;;;;;5396665;26;20249;-57
2024/04/22 04:09:29;;;;;;;3.60;3.30;;;15.30;41.10;;;;;;5398343;26;20267;-55
2024/04/22 04:11:55;;;;;;;3.60;3.30;;;15.30;41.40;;;;;;5397547;26;20351;-58
2024/04/22 04:14:20;;;;;;;5.10;3.57;;;15.30;41.00;;;;;;5397625;26;20493;-54
2024/04/22 04:16:46;;;;;;;3.20;2.90;;;15.20;41.20;;;;;;5398749;26;20288;-56
2024/04/22 04:19:12;;;;;;;3.53;3.20;;;15.10;41.40;;;;;;5394340;26;20245;-57
2024/04/22 04:21:37;;;;;;;3.50;3.20;;;15.10;41.00;;;;;;5397817;26;20237;-57
2024/04/22 04:24:04;;;;;;;3.13;2.93;;;15.10;41.00;;;;;;5391956;26;20832;-57
2024/04/22 04:26:29;;;;;;;3.50;3.00;;;15.10;41.20;;;;;;5396339;26;20253;-57
2024/04/22 04:28:55;;;;;;;3.57;3.27;;;15.10;40.60;;;;;;5398462;26;20470;-58
2024/04/22 04:31:20;;;;;;;3.70;3.10;;;15.00;40.10;;;;;;5399079;26;20238;-54
2024/04/22 04:33:46;;;;;;;3.43;3.00;;;14.80;40.00;;;;;;5393029;26;20250;-55
2024/04/22 04:36:11;;;;;;;3.47;3.17;;;14.70;40.00;;;;;;5404330;26;20235;-59
2024/04/22 04:38:37;;;;;;;3.30;3.00;;;14.60;40.60;;;;;;5397690;26;20293;-55
2024/04/22 04:41:04;;;;;;;3.73;2.60;;;14.50;41.00;;;;;;5401209;26;20242;-58
2024/04/22 04:43:32;;;;;;;4.60;3.80;;;14.50;41.20;;;;;;5410634;26;20238;-56
2024/04/22 04:45:58;;;;;;;3.60;3.30;;;14.50;40.80;;;;;;5409267;26;20950;-57
2024/04/22 04:48:30;;;;;;;3.17;2.97;;;14.40;41.20;;;;;;5403342;26;20478;-57
2024/04/22 04:50:55;;;;;;;4.47;2.70;;;14.40;41.70;;;;;;5402839;26;20358;-58
2024/04/22 04:53:21;;;;;;;3.73;3.00;;;14.60;41.40;;;;;;5408313;26;20541;-56
2024/04/22 04:55:48;;;;;;;3.13;2.93;;;14.70;41.20;;;;;;5409757;26;20306;-56
2024/04/22 04:58:14;;;;;;;3.30;3.00;;;14.70;40.60;;;;;;5404681;26;20766;-57
2024/04/22 05:00:40;;;;;;;3.43;3.03;;;14.70;40.10;;;;;;5398871;26;20790;-55
2024/04/22 05:03:05;;;;;;;3.83;3.03;;;14.70;40.40;;;;;;5403184;26;20235;-56
2024/04/22 05:05:31;;;;;;;3.50;3.20;;;14.70;41.00;;;;;;5409170;26;20517;-57
2024/04/22 05:07:58;;;;;;;4.40;2.93;;;14.70;40.90;;;;;;5409022;26;20374;-57
2024/04/22 05:10:24;;;;;;;3.17;2.80;;;14.70;40.60;;;;;;5399456;26;20946;-58
2024/04/22 05:12:49;;;;;;;7.73;3.43;;;14.60;39.80;;;;;;5399052;26;20321;-56
2024/04/22 05:15:15;;;;;;;3.17;2.83;;;14.50;39.60;;;;;;5402271;26;20833;-57
2024/04/22 05:17:41;;;;;;;8.80;3.67;;;14.20;39.70;;;;;;5400204;26;20350;-58
2024/04/22 05:20:07;;;;;;;8.00;2.77;;;14.20;44.90;;;;;;5399193;26;20753;-58
2024/04/22 05:22:33;;;;;;;2.90;2.70;;;14.40;45.00;;;;;;5399112;26;20346;-58
2024/04/22 05:24:59;;;;;;;2.90;2.60;;;14.50;43.50;;;;;;5401932;26;21141;-57
2024/04/22 05:27:25;;;;;;;5.80;3.30;;;14.70;42.50;;;;;;5399346;26;20292;-58
2024/04/22 05:29:50;;;;;;;3.37;2.97;;;14.80;41.50;;;;;;5400616;26;20711;-58
2024/04/22 05:32:17;;;;;;;4.20;3.00;;;14.80;40.60;;;;;;5399629;26;20242;-57
2024/04/22 05:37:27;;;;;;;4.20;2.77;;;14.40;39.30;;;;;;5400285;26;20596;-55
2024/04/22 05:39:53;;;;;;;5.97;3.10;;;14.10;39.40;;;;;;5401427;26;20531;-57
2024/04/22 05:42:18;;;;;;;3.27;2.97;;;13.80;39.70;;;;;;5400550;26;20245;-57
2024/04/22 05:44:44;;;;;;;4.50;3.37;;;13.60;40.00;;;;;;5398999;26;20234;-57
2024/04/22 05:47:09;;;;;;;3.47;3.17;;;13.40;40.20;;;;;;5397787;26;20292;-58
2024/04/22 05:49:35;;;;;;;6.30;2.83;;;13.10;40.70;;;;;;5404387;26;20354;-59
2024/04/22 05:52:01;;;;;;;3.57;3.27;;;12.90;41.20;;;;;;5397571;26;20618;-59
2024/04/22 05:54:26;;;;;;;4.27;3.80;;;12.70;41.60;;;;;;5401693;26;20237;-55
2024/04/22 05:56:52;;;;;;;3.63;3.33;;;12.50;41.90;;;;;;5404599;26;20386;-59
2024/04/22 05:59:17;;;;;;;4.70;3.57;;;12.40;42.30;;;;;;5407063;26;20230;-59
2024/04/22 06:01:43;;;;;;;4.23;3.13;;;12.30;42.70;;;;;;5402522;26;20245;-59
2024/04/22 06:04:09;;;;;;;4.13;3.73;;;12.20;43.00;;;;;;5402189;26;20411;-55
2024/04/22 06:06:36;;;;;;;4.40;2.90;;;12.10;43.20;;;;;;5407853;26;20290;-58
2024/04/22 06:09:02;;;;;;;3.70;3.40;;;12.10;43.20;;;;;;5401879;26;20268;-59
2024/04/22 06:11:28;;;;;;;3.53;2.83;;;12.00;43.40;;;;;;5389992;26;20468;-58
2024/04/22 06:13:54;;;;;;;6.53;5.90;;;11.90;43.70;;;;;;5394644;26;20524;-58
2024/04/22 06:16:19;;;;;;;4.20;3.80;;;11.90;44.10;;;;;;5399327;26;20387;-58
2024/04/22 06:18:45;;;;;;;4.03;3.63;;;11.90;44.20;;;;;;5407807;26;20768;-58
2024/04/22 06:21:10;;;;;;;2.87;2.67;;;11.90;44.30;;;;;;5408958;26;20281;-57
2024/04/22 06:23:36;;;;;;;3.90;3.37;;;11.80;44.20;;;;;;5409650;26;20233;-59
2024/04/22 06:26:06;;;;;;;3.13;2.63;;;11.80;44.50;;;;;;5398912;26;20241;-56
2024/04/22 06:28:35;;;;;;;5.33;3.90;;;11.90;44.80;;;;;;5409947;26;20350;-58
2024/04/22 06:31:01;;;;;;;4.63;3.63;;;11.80;44.90;;;;;;5403568;26;20475;-58
2024/04/22 06:33:28;;;;;;;3.70;3.40;;;11.90;45.10;;;;;;5407714;26;20591;-59
2024/04/22 06:35:54;;;;;;;7.20;3.53;;;11.90;44.80;;;;;;5409238;26;20535;-56
2024/04/22 06:38:20;;;;;;;3.40;3.10;;;12.00;45.40;;;;;;5401574;26;20488;-57
2024/04/22 06:40:46;;;;;;;3.43;3.07;;;12.20;45.00;;;;;;5406840;26;20237;-59
2024/04/22 06:43:11;;;;;;;3.30;3.00;;;12.40;44.20;;;;;;5401127;26;20234;-58
2024/04/22 06:45:40;;;;;;;3.70;3.40;;;12.50;43.90;;;;;;5406080;26;20541;-58
2024/04/22 06:48:06;;;;;;;3.40;2.43;;;12.60;43.90;;;;;;5400102;26;20245;-57
2024/04/22 06:50:32;;;;;;;5.70;3.57;;;12.80;43.80;;;;;;5402642;26;20527;-59
2024/04/22 06:52:58;;;;;;;4.17;2.50;;;12.80;43.10;;;;;;5396394;26;20679;-57
2024/04/22 06:55:23;;;;;;;3.17;2.30;;;12.90;42.50;;;;;;5410128;26;20237;-58
2024/04/22 06:57:49;;;;;;;3.23;2.93;;;13.00;42.60;;;;;;5408199;26;20326;-59
2024/04/22 07:00:16;;;;;;;3.13;2.83;;;13.00;42.20;;;;;;5396284;26;20280;-58
2024/04/22 07:02:42;;;;;;;3.10;2.80;;;13.00;41.60;;;;;;5406728;26;20234;-57
2024/04/22 07:05:08;;;;;;;5.37;2.83;;;13.00;41.50;;;;;;5398628;26;21015;-56
2024/04/22 07:07:33;;;;;;;3.77;3.47;;;13.10;41.60;;;;;;5397279;26;20535;-57
2024/04/22 07:09:59;;;;;;;3.53;2.77;;;13.20;41.70;;;;;;5404764;26;20233;-57
2024/04/22 07:12:24;;;;;;;3.80;2.10;;;13.20;41.60;;;;;;5402601;26;20334;-58
2024/04/22 07:14:50;;;;;;;2.50;2.30;;;13.20;41.60;;;;;;5400943;26;20284;-58
2024/04/22 07:17:16;;;;;;;3.50;2.77;;;13.20;41.70;;;;;;5405471;26;20249;-58
2024/04/22 07:19:41;;;;;;;2.77;2.57;;;13.20;42.40;;;;;;5397101;26;20359;-58
2024/04/22 07:22:07;;;;;;;6.23;2.23;;;13.10;40.70;;;;;;5400903;26;20717;-58
2024/04/22 07:24:33;;;;;;;3.00;2.70;;;13.00;40.60;;;;;;5374579;26;20238;-56
2024/04/22 07:26:59;;;;;;;3.53;2.30;;;13.00;41.10;;;;;;5405036;26;20245;-60
2024/04/22 07:29:25;;;;;;;2.83;2.30;;;13.00;41.50;;;;;;5404281;26;20284;-57
2024/04/22 07:31:51;;;;;;;2.63;2.43;;;13.00;41.70;;;;;;5406263;26;20479;-60
2024/04/22 07:34:17;;;;;;;3.03;2.73;;;12.70;41.30;;;;;;5394012;26;20473;-59
2024/04/22 07:36:47;;;;;;;2.93;2.23;;;12.60;41.30;;;;;;5407807;26;20531;-57
2024/04/22 07:39:17;;;;;;;2.90;2.33;;;12.30;41.50;;;;;;5395146;26;20246;-58
2024/04/22 07:41:43;;;;;;;3.67;2.70;;;12.00;41.40;;;;;;5403329;26;20472;-54
2024/04/22 07:44:08;;;;;;;2.67;2.47;;;12.10;42.00;;;;;;5405767;26;20467;-59
2024/04/22 07:46:34;;;;;;;3.77;2.60;;;12.20;42.60;;;;;;5403423;26;21038;-58
2024/04/22 07:49:00;;;;;;;3.17;2.97;;;12.20;42.20;;;;;;5410051;26;20229;-60
2024/04/22 07:51:25;;;;;;;3.73;2.43;;;12.30;41.30;;;;;;5397631;26;20753;-58
2024/04/22 07:53:53;;;;;;;4.13;2.50;;;12.30;40.60;;;;;;5400316;26;20234;-58
2024/04/22 07:56:21;;;;;;;3.57;2.10;;;12.50;41.30;;;;;;5399339;26;20276;-59
2024/04/22 07:58:47;;;;;;;2.47;2.27;;;12.50;40.50;;;;;;5400051;26;20459;-59
2024/04/22 08:01:14;;;;;;;2.93;2.30;;;12.60;40.50;;;;;;5400220;26;20483;-56
2024/04/22 08:03:40;;;;;;;2.77;2.27;;;12.80;41.00;;;;;;5405402;26;20605;-58
2024/04/22 08:06:16;;;;;;;2.80;2.53;;;12.90;40.80;;;;;;5402608;26;20541;-59
2024/04/22 08:08:42;;;;;;;2.40;2.13;;;13.00;40.60;;;;;;5401433;26;20463;-59
2024/04/22 08:11:07;;;;;;;4.07;2.20;;;13.00;40.10;;;;;;5403135;26;20527;-57
2024/04/22 08:13:33;;;;;;;2.67;2.47;;;13.10;39.80;;;;;;5394840;26;20334;-59
2024/04/22 08:15:59;;;;;;;3.97;2.50;;;13.20;39.20;;;;;;5396268;26;20611;-57
2024/04/22 08:18:25;;;;;;;2.80;2.60;;;13.30;40.80;;;;;;5399174;26;20467;-57
2024/04/22 08:20:50;;;;;;;2.50;2.30;;;13.60;41.70;;;;;;5405202;26;20316;-60
2024/04/22 08:23:16;;;;;;;3.30;2.37;;;13.60;39.70;;;;;;5404828;26;20279;-60
2024/04/22 08:25:42;;;;;;;2.63;1.97;;;13.50;39.40;;;;;;5406655;26;20776;-58
2024/04/22 08:28:08;;;;;;;3.00;2.27;;;13.40;39.20;;;;;;5409202;26;20721;-59
2024/04/22 08:30:33;;;;;;;4.60;2.77;;;13.40;40.00;;;;;;5405429;26;20475;-56
2024/04/22 08:33:00;;;;;;;4.23;2.47;;;13.50;39.80;;;;;;5400562;26;20301;-53
2024/04/22 08:35:26;;;;;;;3.50;2.80;;;13.70;39.30;;;;;;5403176;26;20284;-59
2024/04/22 08:37:51;;;;;;;3.93;2.50;;;13.70;39.00;;;;;;5411590;26;20483;-60
2024/04/22 08:40:17;;;;;;;4.17;2.37;;;13.80;39.20;;;;;;5403454;26;20235;-59
2024/04/22 08:42:43;;;;;;;3.30;2.57;;;14.10;39.30;;;;;;5383603;26;20281;-57
2024/04/22 08:45:09;;;;;;;2.20;2.00;;;14.20;38.90;;;;;;5398623;26;20539;-60
2024/04/22 08:47:34;;;;;;;3.03;2.20;;;14.20;38.10;;;;;;5404581;26;20367;-60
2024/04/22 08:50:00;;;;;;;2.00;1.90;;;14.20;38.00;;;;;;5398720;26;20285;-59
2024/04/22 08:52:26;;;;;;;3.50;2.80;;;14.30;37.70;;;;;;5403568;26;20272;-59
2024/04/22 08:54:51;;;;;;;3.30;2.40;;;13.90;37.20;;;;;;5403454;26;20242;-58
2024/04/22 08:57:17;;;;;;;2.60;1.90;;;14.20;38.60;;;;;;5399800;26;20249;-59
2024/04/22 08:59:44;;;;;;;2.50;2.30;;;14.40;37.00;;;;;;5404144;26;20298;-60
2024/04/22 09:02:12;;;;;;;2.53;2.20;;;14.40;37.10;;;;;;5407485;26;20329;-59
2024/04/22 09:04:38;;;;;;;2.60;2.40;;;14.80;38.40;;;;;;5402454;26;20473;-61
2024/04/22 09:07:07;;;;;;;2.33;2.13;;;14.80;35.90;;;;;;5392139;26;20503;-59
2024/04/22 09:09:33;;;;;;;4.40;2.30;;;14.50;35.70;;;;;;5406468;26;20287;-60
2024/04/22 09:11:59;;;;;;;3.37;2.43;;;14.40;36.50;;;;;;5402609;26;21045;-59
2024/04/22 09:14:25;;;;;;;2.87;2.60;;;14.50;35.70;;;;;;5407334;26;20233;-60
2024/04/22 09:16:51;;;;;;;2.93;2.70;;;14.60;35.40;;;;;;5406213;26;20581;-61
2024/04/22 09:19:24;;;;;;;2.90;2.30;;;14.90;35.60;;;;;;5395090;26;20480;-59
2024/04/22 09:21:51;;;;;;;2.57;2.37;;;15.20;36.00;;;;;;5411266;26;20536;-57
2024/04/22 09:24:16;;;;;;;2.70;2.50;;;15.40;36.00;;;;;;5418413;26;20471;-60
2024/04/22 09:26:42;;;;;;;2.30;2.03;;;15.60;35.90;;;;;;5403644;26;20539;-60
2024/04/22 09:29:08;;;;;;;2.33;2.13;;;15.30;34.20;;;;;;5399764;26;20344;-59
2024/04/22 09:31:40;;;;;;;3.63;2.73;;;15.40;34.60;;;;;;5400226;26;20226;-61
2024/04/22 09:34:07;;;;;;;2.97;2.60;;;15.30;34.40;;;;;;5393527;26;20468;-59
2024/04/22 09:36:34;;;;;;;4.70;2.37;;;15.20;34.60;;;;;;5403011;26;21087;-60
2024/04/22 09:39:00;;;;;;;3.73;2.20;;;15.20;35.40;;;;;;5396956;26;21012;-59
2024/04/22 09:41:27;;;;;;;2.63;2.33;;;14.80;34.60;;;;;;5409800;26;20467;-59
2024/04/22 09:43:54;;;;;;;2.87;2.40;;;14.90;37.20;;;;;;5392197;26;20485;-59
2024/04/22 09:46:20;;;;;;;3.03;2.57;;;14.90;35.70;;;;;;5403131;26;20521;-59
2024/04/22 09:48:47;;;;;;;2.90;2.60;;;14.90;35.40;;;;;;5403987;26;20468;-59
2024/04/22 09:51:14;;;;;;;2.13;1.93;;;15.10;35.00;;;;;;5406978;26;21074;-60
2024/04/22 09:53:41;;;;;;;2.33;2.13;;;15.10;35.10;;;;;;5396680;26;20479;-60
2024/04/22 09:56:21;;;;;;;2.33;2.13;;;15.20;36.00;;;;;;5407922;26;20491;-61
2024/04/22 09:58:47;;;;;;;2.67;2.40;;;15.30;35.40;;;;;;5403409;26;21126;-60
2024/04/22 10:01:13;;;;;;;2.07;1.97;;;15.10;34.40;;;;;;5404449;26;20523;-60
2024/04/22 10:03:39;;;;;;;2.40;2.20;;;15.00;34.70;;;;;;5396776;26;20245;-59
2024/04/22 10:06:06;;;;;;;2.43;2.23;;;15.00;34.70;;;;;;5400927;26;20247;-60
2024/04/22 10:08:32;;;;;;;3.70;2.13;;;15.10;35.20;;;;;;5398924;26;20388;-58
2024/04/22 10:11:06;;;;;;;2.53;2.33;;;15.40;35.30;;;;;;5404448;26;20595;-60
2024/04/22 10:13:32;;;;;;;2.20;2.00;;;15.50;33.50;;;;;;5399830;26;20455;-60
2024/04/22 10:15:58;;;;;;;2.33;2.13;;;15.40;33.80;;;;;;5402871;26;20507;-60
2024/04/22 10:18:23;;;;;;;2.33;2.03;;;15.10;32.90;;;;;;5408878;26;20241;-61
2024/04/22 10:20:49;;;;;;;2.17;1.97;;;15.20;33.50;;;;;;5404762;26;20340;-61
2024/04/22 10:23:15;;;;;;;1.90;1.80;;;15.10;33.20;;;;;;5411971;26;20237;-60
2024/04/22 10:25:41;;;;;;;2.30;2.10;;;15.00;32.40;;;;;;5400678;26;20734;-59
2024/04/22 10:28:07;;;;;;;1.70;1.60;;;15.00;32.70;;;;;;5406848;26;20582;-61
2024/04/22 10:30:37;;;;;;;2.20;2.00;;;15.10;33.30;;;;;;5401208;26;20522;-60
2024/04/22 10:33:06;;;;;;;2.17;1.80;;;15.20;33.80;;;;;;5398990;26;20235;-58
2024/04/22 10:35:32;;;;;;;2.50;1.90;;;15.20;32.50;;;;;;5405523;26;20834;-60
2024/04/22 10:37:58;;;;;;;1.70;1.60;;;14.90;32.10;;;;;;5403865;26;20478;-59
2024/04/22 10:40:24;;;;;;;3.30;2.40;;;14.60;31.50;;;;;;5401909;26;21094;-61
2024/04/22 10:42:50;;;;;;;1.93;1.83;;;14.60;32.30;;;;;;5408886;26;20471;-61
2024/04/22 10:45:16;;;;;;;2.30;2.10;;;14.70;32.90;;;;;;5400136;26;20484;-58
2024/04/22 10:47:42;;;;;;;1.60;1.50;;;15.00;33.30;;;;;;5408300;26;21291;-60
2024/04/22 10:50:17;;;;;;;9.43;2.50;;;15.30;32.50;;;;;;5396592;26;20243;-60
2024/04/22 10:52:43;;;;;;;1.77;1.63;;;15.40;30.60;;;;;;5401635;26;20292;-60
2024/04/22 10:55:09;;;;;;;8.00;2.37;;;15.10;29.60;;;;;;5400315;26;20823;-61
2024/04/22 10:57:35;;;;;;;2.00;1.83;;;15.10;31.10;;;;;;5409234;26;20260;-60
2024/04/22 11:00:01;;;;;;;2.13;1.93;;;15.40;34.10;;;;;;5404043;26;20525;-58
2024/04/22 11:02:28;;;;;;;2.00;1.87;;;15.30;33.40;;;;;;5412589;26;20237;-60
2024/04/22 11:04:54;;;;;;;2.70;2.50;;;15.40;35.00;;;;;;5403146;26;20597;-60
2024/04/22 11:07:23;;;;;;;4.40;2.90;;;15.70;35.40;;;;;;5415579;26;20482;-60
2024/04/22 11:09:49;;;;;;;2.60;2.40;;;15.90;35.20;;;;;;5402765;26;20647;-60
2024/04/22 11:12:16;;;;;;;2.30;2.10;;;15.90;34.50;;;;;;5417887;26;20470;-60
2024/04/22 11:14:42;;;;;;;2.17;2.00;;;16.00;36.80;;;;;;5399227;26;20463;-60
2024/04/22 11:17:09;;;;;;;2.40;2.20;;;16.20;34.30;;;;;;5411694;26;20479;-61
2024/04/22 11:19:35;;;;;;;1.90;1.80;;;16.50;33.60;;;;;;5418156;26;20459;-59
2024/04/22 11:22:01;;;;;;;2.10;1.90;;;16.60;34.70;;;;;;5403277;26;20483;-59
2024/04/22 11:24:28;;;;;;;2.07;1.87;;;16.70;32.90;;;;;;5411031;26;20245;-58
2024/04/22 11:26:53;;;;;;;2.80;2.50;;;16.60;31.90;;;;;;5403455;26;20475;-61
2024/04/22 11:29:19;;;;;;;2.30;2.10;;;16.40;32.40;;;;;;5402167;26;20869;-60
2024/04/22 11:31:45;;;;;;;2.80;2.37;;;16.40;31.80;;;;;;5396091;26;20237;-60
2024/04/22 11:34:11;;;;;;;2.10;1.90;;;16.30;32.60;;;;;;5395732;26;20523;-60
2024/04/22 11:36:37;;;;;;;3.20;1.77;;;16.40;32.70;;;;;;5408487;26;20902;-60
2024/04/22 11:39:10;;;;;;;4.00;2.40;;;16.50;32.50;;;;;;5400431;26;20241;-59
2024/04/22 11:41:35;;;;;;;2.67;2.30;;;16.20;30.40;;;;;;5409742;26;20724;-61
2024/04/22 11:44:01;;;;;;;2.67;2.23;;;16.00;31.60;;;;;;5397774;26;20524;-60
2024/04/22 11:46:27;;;;;;;1.60;1.50;;;15.90;31.80;;;;;;5403751;26;20783;-61
2024/04/22 11:48:52;;;;;;;1.97;1.73;;;16.30;33.40;;;;;;5404914;26;20265;-60
2024/04/22 11:51:18;;;;;;;1.83;1.73;;;16.20;35.10;;;;;;5403027;26;20238;-61
2024/04/22 11:53:44;;;;;;;2.23;2.03;;;16.10;36.00;;;;;;5411089;26;20241;-60
2024/04/22 11:56:09;;;;;;;1.83;1.73;;;16.40;35.20;;;;;;5403676;26;20276;-60
2024/04/22 11:58:35;;;;;;;2.10;1.90;;;16.50;34.00;;;;;;5402235;26;20247;-61
2024/04/22 12:01:00;;;;;;;2.10;2.00;;;16.70;33.20;;;;;;5397749;26;20235;-62
2024/04/22 12:03:26;;;;;;;2.40;2.20;;;16.80;33.80;;;;;;5408330;26;20720;-61
2024/04/22 12:05:51;;;;;;;2.07;1.97;;;16.70;33.20;;;;;;5410432;26;20229;-60
2024/04/22 12:08:17;;;;;;;2.10;1.90;;;16.50;33.30;;;;;;5401149;26;20233;-60
2024/04/22 12:10:43;;;;;;;2.47;2.27;;;16.50;33.10;;;;;;5392005;26;20234;-59
2024/04/22 12:13:08;;;;;;;2.83;2.10;;;16.80;33.90;;;;;;5396395;26;20484;-60
2024/04/22 12:15:34;;;;;;;1.83;1.70;;;16.80;34.20;;;;;;5407676;26;20233;-59
2024/04/22 12:18:00;;;;;;;1.67;1.57;;;17.00;33.20;;;;;;5402767;26;20756;-60
2024/04/22 12:20:25;;;;;;;1.70;1.60;;;17.10;31.90;;;;;;5397803;26;20511;-59
2024/04/22 12:22:51;;;;;;;1.93;1.73;;;16.90;30.30;;;;;;5405033;26;20792;-60
2024/04/22 12:25:16;;;;;;;2.20;1.63;;;16.70;31.00;;;;;;5398178;26;20234;-61
2024/04/22 12:27:42;;;;;;;1.70;1.60;;;16.70;31.00;;;;;;5413002;26;20649;-61
2024/04/22 12:30:09;;;;;;;2.20;2.07;;;16.70;30.50;;;;;;5397317;26;20760;-60
2024/04/22 12:32:37;;;;;;;2.23;2.03;;;16.70;30.80;;;;;;5411949;26;20272;-58
2024/04/22 12:35:03;;;;;;;2.03;1.93;;;16.70;32.00;;;;;;5410492;26;20589;-60
2024/04/22 12:37:29;;;;;;;2.10;1.70;;;16.70;31.60;;;;;;5396466;26;21050;-59
2024/04/22 12:39:55;;;;;;;2.30;1.90;;;16.70;32.70;;;;;;5398053;26;20583;-60
2024/04/22 12:42:21;;;;;;;2.03;1.93;;;16.80;33.10;;;;;;5404612;26;20295;-61
2024/04/22 12:44:46;;;;;;;2.50;2.17;;;16.60;33.00;;;;;;5398969;26;20836;-60
2024/04/22 12:52:40;;;;;;;2.30;2.00;;;16.40;32.00;;;;;;5397989;26;21123;-58
2024/04/22 12:55:06;;;;;;;2.23;2.03;;;16.00;32.80;;;;;;5401700;26;20465;-60